Wedge Too — ZCII — position and weather

sailwx.info

Track history (hours):
 
Tides and Currents Weather Stations Pressure Air Temp Water Temp Dewpoint Dewpoint Depression Visibility Wind Speed Wind Dir Waves Ship Positions

Wedge Too

Last reported at 2015-May-28 15:28 UTC. Time now 2015-May-29 12:25 UTC.
Position N 43°44' E 007°25'.

Length 65 m; draft 3.4 m.

Type: Pleasure craft. MMSI: 319861000.

Date/timePositionNaut miles runAvg speedWind from/ knotsBaromVisibWave heightAir tempDewpointWater temp
2015-May-28 15:28N 43°44' E 007°25'1 0.0
2015-May-27 12:10N 43°44' E 007°27'2 2.6
2015-May-27 11:27N 43°43' E 007°28'6 1.2
2015-May-27 06:33N 43°42' E 007°21'1 0.9
2015-May-27 05:29N 43°43' E 007°21'0 0.0
2015-May-27 03:29N 43°43' E 007°21'0 0.0
2015-May-27 02:29N 43°43' E 007°21'0 0.0
2015-May-27 01:29N 43°43' E 007°21'0 0.0
2015-May-27 00:23N 43°43' E 007°21'0 0.0
2015-May-26 23:29N 43°43' E 007°21'0 0.0
2015-May-26 21:11N 43°43' E 007°21'0 0.0
2015-May-26 20:11N 43°43' E 007°21'0 0.0
2015-May-26 19:29N 43°43' E 007°21'0 0.0
2015-May-26 18:29N 43°43' E 007°21'0 0.0
2015-May-26 17:05N 43°43' E 007°21'0 0.0
2015-May-26 16:23N 43°43' E 007°21'0 0.0
2015-May-26 15:23N 43°43' E 007°21'0 0.0
2015-May-26 14:29N 43°43' E 007°21'0 0.0
2015-May-26 13:11N 43°43' E 007°21'0 0.0
2015-May-26 10:11N 43°43' E 007°21'0 0.0
2015-May-26 09:29N 43°43' E 007°21'0 0.0
2015-May-26 08:23N 43°43' E 007°21'0 0.0
2015-May-26 06:29N 43°43' E 007°21'4 4.2
2015-May-26 05:33N 43°39' E 007°19'7 6.9
2015-May-26 04:33N 43°38' E 007°10'1 1.3
2015-May-26 03:33N 43°39' E 007°10'1 0.9
2015-May-26 02:33N 43°38' E 007°09'2 1.9
2015-May-26 01:33N 43°36' E 007°10'9 9.5
2015-May-26 00:33N 43°28' E 007°16'1210.5
2015-May-25 23:27N 43°18' E 007°09'1010.6
2015-May-25 22:33N 43°12' E 006°58'10 9.9
2015-May-25 21:33N 43°13' E 006°44'3 1.3
2015-May-25 19:32N 43°14' E 006°40'0 0.0
2015-May-25 18:07N 43°14' E 006°40'0 0.0
2015-May-25 16:32N 43°14' E 006°40'0 0.0
2015-May-25 14:04N 43°14' E 006°40'0 0.0
2015-May-25 11:29N 43°14' E 006°40'0 0.0
2015-May-25 10:28N 43°14' E 006°40'0 0.1
2015-May-25 09:22N 43°14' E 006°40'1 1.3
2015-May-25 08:33N 43°14' E 006°42'20 0.4
2015-May-23 09:23N 43°28' E 007°02'4 4.9
2015-May-23 08:33N 43°32' E 007°03'0 0.1
2015-May-23 07:24N 43°32' E 007°03'0 0.0
2015-May-23 06:24N 43°32' E 007°03'0 0.0
2015-May-23 05:30N 43°32' E 007°03'0 0.0
2015-May-23 04:18N 43°32' E 007°03'0 0.0
2015-May-23 03:24N 43°32' E 007°03'0 0.0
2015-May-23 02:30N 43°32' E 007°03'0 0.0
2015-May-23 01:30N 43°32' E 007°03'0 0.0
2015-May-23 00:30N 43°32' E 007°03'0 0.0
2015-May-22 23:30N 43°32' E 007°03'0 0.0
2015-May-22 22:30N 43°32' E 007°03'0 0.0
2015-May-22 21:30N 43°32' E 007°03'0 0.0
2015-May-22 20:30N 43°32' E 007°03'0 0.0
2015-May-22 19:30N 43°32' E 007°03'0 0.1
2015-May-22 18:30N 43°32' E 007°03'1 1.1
2015-May-22 17:30N 43°32' E 007°02'0 0.0
2015-May-22 16:33N 43°32' E 007°02'0 0.1
2015-May-22 15:33N 43°32' E 007°02'4 3.6
2015-May-22 14:33N 43°34' E 007°06'0 0.0
2015-May-22 13:32N 43°34' E 007°06'0 0.0
2015-May-22 12:32N 43°34' E 007°06'0 0.0
2015-May-22 11:32N 43°34' E 007°06'0 0.0
2015-May-22 10:32N 43°34' E 007°06'0 0.0
2015-May-22 09:32N 43°34' E 007°06'0 0.0
2015-May-22 08:32N 43°34' E 007°06'1 0.5
2015-May-22 07:23N 43°33' E 007°05'0 0.0
2015-May-22 06:29N 43°33' E 007°05'0 0.0
2015-May-22 05:29N 43°33' E 007°05'0 0.0
2015-May-22 04:29N 43°33' E 007°05'0 0.0
2015-May-22 03:29N 43°33' E 007°05'0 0.0
2015-May-22 02:23N 43°33' E 007°05'0 0.0
2015-May-22 01:29N 43°33' E 007°05'0 0.0
2015-May-22 00:29N 43°33' E 007°05'0 0.0
2015-May-21 23:23N 43°33' E 007°05'0 0.0
2015-May-21 22:29N 43°33' E 007°05'0 0.0
2015-May-21 21:29N 43°33' E 007°05'0 0.0
2015-May-21 20:29N 43°33' E 007°05'0 0.0
2015-May-21 19:23N 43°33' E 007°05'0 0.0
2015-May-21 18:29N 43°33' E 007°05'0 0.0
2015-May-21 17:23N 43°33' E 007°05'0 0.0
2015-May-21 16:29N 43°33' E 007°05'0 0.0
2015-May-21 15:29N 43°33' E 007°05'0 0.0
2015-May-21 14:29N 43°33' E 007°05'0 0.0
2015-May-21 13:29N 43°33' E 007°05'0 0.0
2015-May-21 12:29N 43°33' E 007°05'0 0.0
2015-May-21 11:29N 43°33' E 007°05'0 0.0
2015-May-21 10:29N 43°33' E 007°05'0 0.0
2015-May-21 09:29N 43°33' E 007°05'0 0.0
2015-May-21 08:29N 43°33' E 007°05'0 0.0
2015-May-21 07:29N 43°33' E 007°05'0 0.0
2015-May-21 06:29N 43°33' E 007°05'0 0.0
2015-May-21 05:29N 43°33' E 007°05'0 0.0
2015-May-21 04:23N 43°33' E 007°05'0 0.0
2015-May-21 03:29N 43°33' E 007°05'0 0.0
2015-May-21 02:29N 43°33' E 007°05'0 0.1
2015-May-21 01:22N 43°33' E 007°05'0 0.1
2015-May-21 00:23N 43°33' E 007°05'0 0.0
2015-May-20 23:29N 43°33' E 007°05'0 0.0
2015-May-20 22:29N 43°33' E 007°05'0 0.0
2015-May-20 21:29N 43°33' E 007°05'0 0.0
2015-May-20 20:28N 43°33' E 007°05'0 0.0
2015-May-20 19:28N 43°33' E 007°05'0 0.4
2015-May-20 18:30N 43°33' E 007°06'0 0.1
2015-May-20 17:30N 43°33' E 007°06'0 0.1
2015-May-20 16:30N 43°33' E 007°06'0 0.0
2015-May-20 15:24N 43°33' E 007°06'0 0.0
2015-May-20 14:30N 43°33' E 007°06'0 0.0
2015-May-20 13:30N 43°33' E 007°06'0 0.0
2015-May-20 12:24N 43°33' E 007°06'0 0.0
2015-May-20 11:30N 43°33' E 007°06'0 0.0
2015-May-20 10:18N 43°33' E 007°06'0 0.0
2015-May-20 09:30N 43°33' E 007°06'0 0.0
2015-May-20 08:30N 43°33' E 007°06'0 0.0
2015-May-20 07:30N 43°33' E 007°06'0 0.0
2015-May-20 06:30N 43°33' E 007°06'0 0.0
2015-May-20 05:18N 43°33' E 007°06'0 0.0
2015-May-20 04:24N 43°33' E 007°06'0 0.0
2015-May-20 03:30N 43°33' E 007°06'0 0.0
2015-May-20 02:30N 43°33' E 007°06'0 0.0
2015-May-20 01:30N 43°33' E 007°06'0 0.0
2015-May-20 00:30N 43°33' E 007°06'0 0.0
2015-May-19 23:30N 43°33' E 007°06'0 0.0
2015-May-19 22:30N 43°33' E 007°06'0 0.0
2015-May-19 21:30N 43°33' E 007°06'0 0.0
2015-May-19 20:30N 43°33' E 007°06'0 0.0
2015-May-19 19:30N 43°33' E 007°06'0 0.0
2015-May-19 18:30N 43°33' E 007°06'0 0.0
2015-May-19 17:30N 43°33' E 007°06'0 0.0
2015-May-19 16:30N 43°33' E 007°06'0 0.0
2015-May-19 15:30N 43°33' E 007°06'0 0.0
2015-May-19 14:24N 43°33' E 007°06'0 0.0
2015-May-19 13:24N 43°33' E 007°06'0 0.0
2015-May-19 12:30N 43°33' E 007°05'0 0.0
2015-May-19 11:24N 43°33' E 007°05'0 0.0
2015-May-19 10:30N 43°33' E 007°05'0 0.0
2015-May-19 09:30N 43°33' E 007°05'0 0.0
2015-May-19 08:30N 43°33' E 007°06'0 0.0
2015-May-19 07:30N 43°33' E 007°06'0 0.0
2015-May-19 06:30N 43°33' E 007°06'0 0.0
2015-May-19 05:30N 43°33' E 007°06'0 0.0
2015-May-19 04:30N 43°33' E 007°06'0 0.0
2015-May-19 03:30N 43°33' E 007°06'0 0.0
2015-May-19 02:30N 43°33' E 007°06'0 0.0
2015-May-19 01:30N 43°33' E 007°06'0 0.0
2015-May-19 00:30N 43°33' E 007°06'0 0.0
2015-May-18 23:30N 43°33' E 007°06'0 0.0
2015-May-18 22:30N 43°33' E 007°06'0 0.0
2015-May-18 21:30N 43°33' E 007°06'0 0.0
2015-May-18 20:33N 43°33' E 007°06'0 0.0
2015-May-18 19:33N 43°33' E 007°06'0 0.0
2015-May-18 18:30N 43°33' E 007°06'0 0.0
2015-May-18 17:30N 43°33' E 007°06'0 0.0
2015-May-18 16:30N 43°33' E 007°06'0 0.0
2015-May-18 15:30N 43°33' E 007°06'  
Track history (hours):
 
Tides and Currents Weather Stations Pressure Air Temp Water Temp Dewpoint Dewpoint Depression Visibility Wind Speed Wind Dir Waves Ship Positions

Wedge Too

Last reported at 2015-May-28 15:28 UTC. Time now 2015-May-29 12:25 UTC.
Position N 43°44' E 007°25'.

Length 65 m; draft 3.4 m.

Type: Pleasure craft. MMSI: 319861000.

Date/timePositionNaut miles runAvg speedWind from/ knotsBaromVisibWave heightAir tempDewpointWater temp
2015-May-28 15:28N 43°44' E 007°25'1 0.0
2015-May-27 12:10N 43°44' E 007°27'2 2.6
2015-May-27 11:27N 43°43' E 007°28'6 1.2
2015-May-27 06:33N 43°42' E 007°21'1 0.9
2015-May-27 05:29N 43°43' E 007°21'0 0.0
2015-May-27 03:29N 43°43' E 007°21'0 0.0
2015-May-27 02:29N 43°43' E 007°21'0 0.0
2015-May-27 01:29N 43°43' E 007°21'0 0.0
2015-May-27 00:23N 43°43' E 007°21'0 0.0
2015-May-26 23:29N 43°43' E 007°21'0 0.0
2015-May-26 21:11N 43°43' E 007°21'0 0.0
2015-May-26 20:11N 43°43' E 007°21'0 0.0
2015-May-26 19:29N 43°43' E 007°21'0 0.0
2015-May-26 18:29N 43°43' E 007°21'0 0.0
2015-May-26 17:05N 43°43' E 007°21'0 0.0
2015-May-26 16:23N 43°43' E 007°21'0 0.0
2015-May-26 15:23N 43°43' E 007°21'0 0.0
2015-May-26 14:29N 43°43' E 007°21'0 0.0
2015-May-26 13:11N 43°43' E 007°21'0 0.0
2015-May-26 10:11N 43°43' E 007°21'0 0.0
2015-May-26 09:29N 43°43' E 007°21'0 0.0
2015-May-26 08:23N 43°43' E 007°21'0 0.0
2015-May-26 06:29N 43°43' E 007°21'4 4.2
2015-May-26 05:33N 43°39' E 007°19'7 6.9
2015-May-26 04:33N 43°38' E 007°10'1 1.3
2015-May-26 03:33N 43°39' E 007°10'1 0.9
2015-May-26 02:33N 43°38' E 007°09'2 1.9
2015-May-26 01:33N 43°36' E 007°10'9 9.5
2015-May-26 00:33N 43°28' E 007°16'1210.5
2015-May-25 23:27N 43°18' E 007°09'1010.6
2015-May-25 22:33N 43°12' E 006°58'10 9.9
2015-May-25 21:33N 43°13' E 006°44'3 1.3
2015-May-25 19:32N 43°14' E 006°40'0 0.0
2015-May-25 18:07N 43°14' E 006°40'0 0.0
2015-May-25 16:32N 43°14' E 006°40'0 0.0
2015-May-25 14:04N 43°14' E 006°40'0 0.0
2015-May-25 11:29N 43°14' E 006°40'0 0.0
2015-May-25 10:28N 43°14' E 006°40'0 0.1
2015-May-25 09:22N 43°14' E 006°40'1 1.3
2015-May-25 08:33N 43°14' E 006°42'20 0.4
2015-May-23 09:23N 43°28' E 007°02'4 4.9
2015-May-23 08:33N 43°32' E 007°03'0 0.1
2015-May-23 07:24N 43°32' E 007°03'0 0.0
2015-May-23 06:24N 43°32' E 007°03'0 0.0
2015-May-23 05:30N 43°32' E 007°03'0 0.0
2015-May-23 04:18N 43°32' E 007°03'0 0.0
2015-May-23 03:24N 43°32' E 007°03'0 0.0
2015-May-23 02:30N 43°32' E 007°03'0 0.0
2015-May-23 01:30N 43°32' E 007°03'0 0.0
2015-May-23 00:30N 43°32' E 007°03'0 0.0
2015-May-22 23:30N 43°32' E 007°03'0 0.0
2015-May-22 22:30N 43°32' E 007°03'0 0.0
2015-May-22 21:30N 43°32' E 007°03'0 0.0
2015-May-22 20:30N 43°32' E 007°03'0 0.0
2015-May-22 19:30N 43°32' E 007°03'0 0.1
2015-May-22 18:30N 43°32' E 007°03'1 1.1
2015-May-22 17:30N 43°32' E 007°02'0 0.0
2015-May-22 16:33N 43°32' E 007°02'0 0.1
2015-May-22 15:33N 43°32' E 007°02'4 3.6
2015-May-22 14:33N 43°34' E 007°06'0 0.0
2015-May-22 13:32N 43°34' E 007°06'0 0.0
2015-May-22 12:32N 43°34' E 007°06'0 0.0
2015-May-22 11:32N 43°34' E 007°06'0 0.0
2015-May-22 10:32N 43°34' E 007°06'0 0.0
2015-May-22 09:32N 43°34' E 007°06'0 0.0
2015-May-22 08:32N 43°34' E 007°06'1 0.5
2015-May-22 07:23N 43°33' E 007°05'0 0.0
2015-May-22 06:29N 43°33' E 007°05'0 0.0
2015-May-22 05:29N 43°33' E 007°05'0 0.0
2015-May-22 04:29N 43°33' E 007°05'0 0.0
2015-May-22 03:29N 43°33' E 007°05'0 0.0
2015-May-22 02:23N 43°33' E 007°05'0 0.0
2015-May-22 01:29N 43°33' E 007°05'0 0.0
2015-May-22 00:29N 43°33' E 007°05'0 0.0
2015-May-21 23:23N 43°33' E 007°05'0 0.0
2015-May-21 22:29N 43°33' E 007°05'0 0.0
2015-May-21 21:29N 43°33' E 007°05'0 0.0
2015-May-21 20:29N 43°33' E 007°05'0 0.0
2015-May-21 19:23N 43°33' E 007°05'0 0.0
2015-May-21 18:29N 43°33' E 007°05'0 0.0
2015-May-21 17:23N 43°33' E 007°05'0 0.0
2015-May-21 16:29N 43°33' E 007°05'0 0.0
2015-May-21 15:29N 43°33' E 007°05'0 0.0
2015-May-21 14:29N 43°33' E 007°05'0 0.0
2015-May-21 13:29N 43°33' E 007°05'0 0.0
2015-May-21 12:29N 43°33' E 007°05'0 0.0
2015-May-21 11:29N 43°33' E 007°05'0 0.0
2015-May-21 10:29N 43°33' E 007°05'0 0.0
2015-May-21 09:29N 43°33' E 007°05'0 0.0
2015-May-21 08:29N 43°33' E 007°05'0 0.0
2015-May-21 07:29N 43°33' E 007°05'0 0.0
2015-May-21 06:29N 43°33' E 007°05'0 0.0
2015-May-21 05:29N 43°33' E 007°05'0 0.0
2015-May-21 04:23N 43°33' E 007°05'0 0.0
2015-May-21 03:29N 43°33' E 007°05'0 0.0
2015-May-21 02:29N 43°33' E 007°05'0 0.1
2015-May-21 01:22N 43°33' E 007°05'0 0.1
2015-May-21 00:23N 43°33' E 007°05'0 0.0
2015-May-20 23:29N 43°33' E 007°05'0 0.0
2015-May-20 22:29N 43°33' E 007°05'0 0.0
2015-May-20 21:29N 43°33' E 007°05'0 0.0
2015-May-20 20:28N 43°33' E 007°05'0 0.0
2015-May-20 19:28N 43°33' E 007°05'0 0.4
2015-May-20 18:30N 43°33' E 007°06'0 0.1
2015-May-20 17:30N 43°33' E 007°06'0 0.1
2015-May-20 16:30N 43°33' E 007°06'0 0.0
2015-May-20 15:24N 43°33' E 007°06'0 0.0
2015-May-20 14:30N 43°33' E 007°06'0 0.0
2015-May-20 13:30N 43°33' E 007°06'0 0.0
2015-May-20 12:24N 43°33' E 007°06'0 0.0
2015-May-20 11:30N 43°33' E 007°06'0 0.0
2015-May-20 10:18N 43°33' E 007°06'0 0.0
2015-May-20 09:30N 43°33' E 007°06'0 0.0
2015-May-20 08:30N 43°33' E 007°06'0 0.0
2015-May-20 07:30N 43°33' E 007°06'0 0.0
2015-May-20 06:30N 43°33' E 007°06'0 0.0
2015-May-20 05:18N 43°33' E 007°06'0 0.0
2015-May-20 04:24N 43°33' E 007°06'0 0.0
2015-May-20 03:30N 43°33' E 007°06'0 0.0
2015-May-20 02:30N 43°33' E 007°06'0 0.0
2015-May-20 01:30N 43°33' E 007°06'0 0.0
2015-May-20 00:30N 43°33' E 007°06'0 0.0
2015-May-19 23:30N 43°33' E 007°06'0 0.0
2015-May-19 22:30N 43°33' E 007°06'0 0.0
2015-May-19 21:30N 43°33' E 007°06'0 0.0
2015-May-19 20:30N 43°33' E 007°06'0 0.0
2015-May-19 19:30N 43°33' E 007°06'0 0.0
2015-May-19 18:30N 43°33' E 007°06'0 0.0
2015-May-19 17:30N 43°33' E 007°06'0 0.0
2015-May-19 16:30N 43°33' E 007°06'0 0.0
2015-May-19 15:30N 43°33' E 007°06'0 0.0
2015-May-19 14:24N 43°33' E 007°06'0 0.0
2015-May-19 13:24N 43°33' E 007°06'0 0.0
2015-May-19 12:30N 43°33' E 007°05'0 0.0
2015-May-19 11:24N 43°33' E 007°05'0 0.0
2015-May-19 10:30N 43°33' E 007°05'0 0.0
2015-May-19 09:30N 43°33' E 007°05'0 0.0
2015-May-19 08:30N 43°33' E 007°06'0 0.0
2015-May-19 07:30N 43°33' E 007°06'0 0.0
2015-May-19 06:30N 43°33' E 007°06'0 0.0
2015-May-19 05:30N 43°33' E 007°06'0 0.0
2015-May-19 04:30N 43°33' E 007°06'0 0.0
2015-May-19 03:30N 43°33' E 007°06'0 0.0
2015-May-19 02:30N 43°33' E 007°06'0 0.0
2015-May-19 01:30N 43°33' E 007°06'0 0.0
2015-May-19 00:30N 43°33' E 007°06'0 0.0
2015-May-18 23:30N 43°33' E 007°06'0 0.0
2015-May-18 22:30N 43°33' E 007°06'0 0.0
2015-May-18 21:30N 43°33' E 007°06'0 0.0
2015-May-18 20:33N 43°33' E 007°06'0 0.0
2015-May-18 19:33N 43°33' E 007°06'0 0.0
2015-May-18 18:30N 43°33' E 007°06'0 0.0
2015-May-18 17:30N 43°33' E 007°06'0 0.0
2015-May-18 16:30N 43°33' E 007°06'0 0.0
2015-May-18 15:30N 43°33' E 007°06'  

Dump ship's entire track history